sensor_id;sensor_type;location;lat;lon;timestamp;temperature;humidity
32614;DHT22;19031;51.400;6.770;2024-03-02T00:00:43;7.90;99.90
32614;DHT22;19031;51.400;6.770;2024-03-02T00:03:09;7.90;99.90
32614;DHT22;19031;51.400;6.770;2024-03-02T00:05:35;7.90;99.90
32614;DHT22;19031;51.400;6.770;2024-03-02T00:08:00;7.90;99.90
32614;DHT22;19031;51.400;6.770;2024-03-02T00:10:34;7.90;99.90
32614;DHT22;19031;51.400;6.770;2024-03-02T00:13:02;7.90;99.90
32614;DHT22;19031;51.400;6.770;2024-03-02T00:15:46;7.90;99.90
32614;DHT22;19031;51.400;6.770;2024-03-02T00:18:16;7.90;99.90
32614;DHT22;19031;51.400;6.770;2024-03-02T00:20:43;7.90;99.90
32614;DHT22;19031;51.400;6.770;2024-03-02T00:23:10;8.00;99.90
32614;DHT22;19031;51.400;6.770;2024-03-02T00:25:44;8.00;99.90
32614;DHT22;19031;51.400;6.770;2024-03-02T00:28:34;8.00;99.90
32614;DHT22;19031;51.400;6.770;2024-03-02T00:33:51;8.10;99.90
32614;DHT22;19031;51.400;6.770;2024-03-02T00:36:22;8.20;99.90
32614;DHT22;19031;51.400;6.770;2024-03-02T00:38:51;8.30;99.90
32614;DHT22;19031;51.400;6.770;2024-03-02T00:41:31;8.30;99.90
32614;DHT22;19031;51.400;6.770;2024-03-02T00:44:01;8.40;99.90
32614;DHT22;19031;51.400;6.770;2024-03-02T00:46:39;8.50;99.90
32614;DHT22;19031;51.400;6.770;2024-03-02T00:49:25;8.50;99.90
32614;DHT22;19031;51.400;6.770;2024-03-02T00:51:53;8.60;99.90
32614;DHT22;19031;51.400;6.770;2024-03-02T00:54:20;8.50;99.90
32614;DHT22;19031;51.400;6.770;2024-03-02T00:56:47;8.50;99.90
32614;DHT22;19031;51.400;6.770;2024-03-02T00:59:12;8.50;99.90
32614;DHT22;19031;51.400;6.770;2024-03-02T01:01:38;8.60;99.90
32614;DHT22;19031;51.400;6.770;2024-03-02T01:04:04;8.60;99.90
32614;DHT22;19031;51.400;6.770;2024-03-02T01:06:30;8.60;99.90
32614;DHT22;19031;51.400;6.770;2024-03-02T01:08:56;8.70;99.90
32614;DHT22;19031;51.400;6.770;2024-03-02T01:11:22;8.70;99.90
32614;DHT22;19031;51.400;6.770;2024-03-02T01:13:47;8.70;99.90
32614;DHT22;19031;51.400;6.770;2024-03-02T01:16:13;8.70;99.90
32614;DHT22;19031;51.400;6.770;2024-03-02T01:18:41;8.70;99.90
32614;DHT22;19031;51.400;6.770;2024-03-02T01:21:06;8.80;99.90
32614;DHT22;19031;51.400;6.770;2024-03-02T01:23:32;8.70;99.90
32614;DHT22;19031;51.400;6.770;2024-03-02T01:25:57;8.70;99.90
32614;DHT22;19031;51.400;6.770;2024-03-02T01:28:23;8.70;99.90
32614;DHT22;19031;51.400;6.770;2024-03-02T01:30:48;8.60;99.90
32614;DHT22;19031;51.400;6.770;2024-03-02T01:33:15;8.60;99.90
32614;DHT22;19031;51.400;6.770;2024-03-02T01:35:41;8.50;99.90
32614;DHT22;19031;51.400;6.770;2024-03-02T01:38:06;8.60;99.90
32614;DHT22;19031;51.400;6.770;2024-03-02T01:40:36;8.50;99.90
32614;DHT22;19031;51.400;6.770;2024-03-02T01:43:01;8.40;99.90
32614;DHT22;19031;51.400;6.770;2024-03-02T01:45:28;8.40;99.90
32614;DHT22;19031;51.400;6.770;2024-03-02T01:47:53;8.40;99.90
32614;DHT22;19031;51.400;6.770;2024-03-02T01:50:27;8.40;99.90
32614;DHT22;19031;51.400;6.770;2024-03-02T01:52:54;8.30;99.90
32614;DHT22;19031;51.400;6.770;2024-03-02T01:55:19;8.30;99.90
32614;DHT22;19031;51.400;6.770;2024-03-02T01:57:45;8.30;99.90
32614;DHT22;19031;51.400;6.770;2024-03-02T02:00:11;8.30;99.90
32614;DHT22;19031;51.400;6.770;2024-03-02T02:02:37;8.30;99.90
32614;DHT22;19031;51.400;6.770;2024-03-02T02:05:03;8.30;99.90
32614;DHT22;19031;51.400;6.770;2024-03-02T02:07:29;8.30;99.90
32614;DHT22;19031;51.400;6.770;2024-03-02T02:09:55;8.50;99.90
32614;DHT22;19031;51.400;6.770;2024-03-02T02:12:20;8.50;99.90
32614;DHT22;19031;51.400;6.770;2024-03-02T02:14:49;8.70;99.90
32614;DHT22;19031;51.400;6.770;2024-03-02T02:17:15;8.70;99.90
32614;DHT22;19031;51.400;6.770;2024-03-02T02:19:42;8.80;99.90
32614;DHT22;19031;51.400;6.770;2024-03-02T02:22:08;8.80;99.90
32614;DHT22;19031;51.400;6.770;2024-03-02T02:24:34;8.80;99.90
32614;DHT22;19031;51.400;6.770;2024-03-02T02:26:59;8.90;99.90
32614;DHT22;19031;51.400;6.770;2024-03-02T02:29:25;9.00;99.90
32614;DHT22;19031;51.400;6.770;2024-03-02T02:31:50;9.00;99.90
32614;DHT22;19031;51.400;6.770;2024-03-02T02:34:16;9.00;99.90
32614;DHT22;19031;51.400;6.770;2024-03-02T02:36:42;9.00;99.90
32614;DHT22;19031;51.400;6.770;2024-03-02T02:39:12;9.10;99.90
32614;DHT22;19031;51.400;6.770;2024-03-02T02:41:39;9.10;99.90
32614;DHT22;19031;51.400;6.770;2024-03-02T02:44:04;9.10;99.90
32614;DHT22;19031;51.400;6.770;2024-03-02T02:46:30;9.10;99.90
32614;DHT22;19031;51.400;6.770;2024-03-02T02:48:56;9.20;99.90
32614;DHT22;19031;51.400;6.770;2024-03-02T02:51:21;9.20;99.90
32614;DHT22;19031;51.400;6.770;2024-03-02T02:53:47;9.10;99.90
32614;DHT22;19031;51.400;6.770;2024-03-02T02:56:12;9.10;99.90
32614;DHT22;19031;51.400;6.770;2024-03-02T02:58:40;9.10;99.90
32614;DHT22;19031;51.400;6.770;2024-03-02T03:01:06;9.00;99.90
32614;DHT22;19031;51.400;6.770;2024-03-02T03:03:31;9.00;99.90
32614;DHT22;19031;51.400;6.770;2024-03-02T03:05:57;9.00;99.90
32614;DHT22;19031;51.400;6.770;2024-03-02T03:08:22;9.00;99.90
32614;DHT22;19031;51.400;6.770;2024-03-02T03:10:49;8.90;99.90
32614;DHT22;19031;51.400;6.770;2024-03-02T03:13:14;9.00;99.90
32614;DHT22;19031;51.400;6.770;2024-03-02T03:15:40;8.90;99.90
32614;DHT22;19031;51.400;6.770;2024-03-02T03:18:06;8.90;99.90
32614;DHT22;19031;51.400;6.770;2024-03-02T03:20:33;8.80;99.90
32614;DHT22;19031;51.400;6.770;2024-03-02T03:22:59;8.90;99.90
32614;DHT22;19031;51.400;6.770;2024-03-02T03:25:25;8.90;99.90
32614;DHT22;19031;51.400;6.770;2024-03-02T03:27:51;8.90;99.90
32614;DHT22;19031;51.400;6.770;2024-03-02T03:30:19;8.90;99.90
32614;DHT22;19031;51.400;6.770;2024-03-02T03:32:45;8.90;99.90
32614;DHT22;19031;51.400;6.770;2024-03-02T03:35:11;8.90;99.90
32614;DHT22;19031;51.400;6.770;2024-03-02T03:37:38;8.90;99.90
32614;DHT22;19031;51.400;6.770;2024-03-02T03:40:05;8.90;99.90
32614;DHT22;19031;51.400;6.770;2024-03-02T03:42:35;8.90;99.90
32614;DHT22;19031;51.400;6.770;2024-03-02T03:45:01;8.80;99.90
32614;DHT22;19031;51.400;6.770;2024-03-02T03:47:26;8.70;99.90
32614;DHT22;19031;51.400;6.770;2024-03-02T03:49:52;8.70;99.90
32614;DHT22;19031;51.400;6.770;2024-03-02T03:52:18;8.70;99.90
32614;DHT22;19031;51.400;6.770;2024-03-02T03:54:43;8.70;99.90
32614;DHT22;19031;51.400;6.770;2024-03-02T03:57:10;8.60;99.90
32614;DHT22;19031;51.400;6.770;2024-03-02T03:59:35;8.70;99.90
32614;DHT22;19031;51.400;6.770;2024-03-02T04:02:03;8.60;99.90
32614;DHT22;19031;51.400;6.770;2024-03-02T04:04:28;8.60;99.90
32614;DHT22;19031;51.400;6.770;2024-03-02T04:06:54;8.50;99.90
32614;DHT22;19031;51.400;6.770;2024-03-02T04:09:19;8.60;99.90
32614;DHT22;19031;51.400;6.770;2024-03-02T04:11:45;8.40;99.90
32614;DHT22;19031;51.400;6.770;2024-03-02T04:14:11;8.40;99.90
32614;DHT22;19031;51.400;6.770;2024-03-02T04:16:38;8.30;99.90
32614;DHT22;19031;51.400;6.770;2024-03-02T04:19:03;8.30;99.90
32614;DHT22;19031;51.400;6.770;2024-03-02T04:21:29;8.10;99.90
32614;DHT22;19031;51.400;6.770;2024-03-02T04:23:55;8.10;99.90
32614;DHT22;19031;51.400;6.770;2024-03-02T04:26:24;8.00;99.90
32614;DHT22;19031;51.400;6.770;2024-03-02T04:28:50;7.90;99.90
32614;DHT22;19031;51.400;6.770;2024-03-02T04:31:16;7.80;99.90
32614;DHT22;19031;51.400;6.770;2024-03-02T04:33:42;7.70;99.90
32614;DHT22;19031;51.400;6.770;2024-03-02T04:36:08;7.70;99.90
32614;DHT22;19031;51.400;6.770;2024-03-02T04:38:36;7.60;99.90
32614;DHT22;19031;51.400;6.770;2024-03-02T04:41:03;7.60;99.90
32614;DHT22;19031;51.400;6.770;2024-03-02T04:43:29;7.50;99.90
32614;DHT22;19031;51.400;6.770;2024-03-02T04:45:54;7.50;99.90
32614;DHT22;19031;51.400;6.770;2024-03-02T04:48:20;7.50;99.90
32614;DHT22;19031;51.400;6.770;2024-03-02T04:50:47;7.50;99.90
32614;DHT22;19031;51.400;6.770;2024-03-02T04:53:13;7.60;99.90
32614;DHT22;19031;51.400;6.770;2024-03-02T04:55:39;7.60;99.90
32614;DHT22;19031;51.400;6.770;2024-03-02T04:58:04;7.60;99.90
32614;DHT22;19031;51.400;6.770;2024-03-02T05:00:30;7.60;99.90
32614;DHT22;19031;51.400;6.770;2024-03-02T05:02:56;7.60;99.90
32614;DHT22;19031;51.400;6.770;2024-03-02T05:05:21;7.50;99.90
32614;DHT22;19031;51.400;6.770;2024-03-02T05:07:47;7.50;99.90
32614;DHT22;19031;51.400;6.770;2024-03-02T05:10:13;7.40;99.90
32614;DHT22;19031;51.400;6.770;2024-03-02T05:12:39;7.40;99.90
32614;DHT22;19031;51.400;6.770;2024-03-02T05:15:08;7.40;99.90
32614;DHT22;19031;51.400;6.770;2024-03-02T05:17:35;7.30;99.90
32614;DHT22;19031;51.400;6.770;2024-03-02T05:20:01;7.20;99.90
32614;DHT22;19031;51.400;6.770;2024-03-02T05:22:27;7.10;99.90
32614;DHT22;19031;51.400;6.770;2024-03-02T05:24:54;7.00;99.90
32614;DHT22;19031;51.400;6.770;2024-03-02T05:27:19;7.00;99.90
32614;DHT22;19031;51.400;6.770;2024-03-02T05:29:45;7.00;99.90
32614;DHT22;19031;51.400;6.770;2024-03-02T05:32:10;6.90;99.90
32614;DHT22;19031;51.400;6.770;2024-03-02T05:34:36;6.90;99.90
32614;DHT22;19031;51.400;6.770;2024-03-02T05:37:01;6.90;99.90
32614;DHT22;19031;51.400;6.770;2024-03-02T05:39:27;6.80;99.90
32614;DHT22;19031;51.400;6.770;2024-03-02T05:41:53;6.90;99.90
32614;DHT22;19031;51.400;6.770;2024-03-02T05:44:18;6.80;99.90
32614;DHT22;19031;51.400;6.770;2024-03-02T05:46:45;6.80;99.90
32614;DHT22;19031;51.400;6.770;2024-03-02T05:49:11;6.80;99.90
32614;DHT22;19031;51.400;6.770;2024-03-02T05:51:36;6.70;99.90
32614;DHT22;19031;51.400;6.770;2024-03-02T05:54:02;6.70;99.90
32614;DHT22;19031;51.400;6.770;2024-03-02T05:56:28;6.70;99.90
32614;DHT22;19031;51.400;6.770;2024-03-02T05:58:53;6.70;99.90
32614;DHT22;19031;51.400;6.770;2024-03-02T06:01:42;6.80;99.90
32614;DHT22;19031;51.400;6.770;2024-03-02T06:04:12;6.70;99.90
32614;DHT22;19031;51.400;6.770;2024-03-02T06:06:37;6.70;99.90
32614;DHT22;19031;51.400;6.770;2024-03-02T06:09:04;6.70;99.90
32614;DHT22;19031;51.400;6.770;2024-03-02T06:11:50;6.60;99.90
32614;DHT22;19031;51.400;6.770;2024-03-02T06:14:15;6.50;99.90
32614;DHT22;19031;51.400;6.770;2024-03-02T06:16:41;6.50;99.90
32614;DHT22;19031;51.400;6.770;2024-03-02T06:19:06;6.40;99.90
32614;DHT22;19031;51.400;6.770;2024-03-02T06:21:32;6.50;99.90
32614;DHT22;19031;51.400;6.770;2024-03-02T06:23:58;6.50;99.90
32614;DHT22;19031;51.400;6.770;2024-03-02T06:26:24;6.50;99.90
32614;DHT22;19031;51.400;6.770;2024-03-02T06:28:49;6.50;99.90
32614;DHT22;19031;51.400;6.770;2024-03-02T06:31:16;6.50;99.90
32614;DHT22;19031;51.400;6.770;2024-03-02T06:33:41;6.50;99.90
32614;DHT22;19031;51.400;6.770;2024-03-02T06:36:07;6.60;99.90
32614;DHT22;19031;51.400;6.770;2024-03-02T06:38:37;6.60;99.90
32614;DHT22;19031;51.400;6.770;2024-03-02T06:41:03;6.60;99.90
32614;DHT22;19031;51.400;6.770;2024-03-02T06:43:28;6.60;99.90
32614;DHT22;19031;51.400;6.770;2024-03-02T06:45:54;6.70;99.90
32614;DHT22;19031;51.400;6.770;2024-03-02T06:48:19;6.60;99.90
32614;DHT22;19031;51.400;6.770;2024-03-02T06:50:49;6.70;99.90
32614;DHT22;19031;51.400;6.770;2024-03-02T06:53:15;6.60;99.90
32614;DHT22;19031;51.400;6.770;2024-03-02T06:55:43;6.70;99.90
32614;DHT22;19031;51.400;6.770;2024-03-02T06:58:11;6.70;99.90
32614;DHT22;19031;51.400;6.770;2024-03-02T07:00:36;6.90;99.90
32614;DHT22;19031;51.400;6.770;2024-03-02T07:03:02;6.90;99.90
32614;DHT22;19031;51.400;6.770;2024-03-02T07:05:27;7.00;99.90
32614;DHT22;19031;51.400;6.770;2024-03-02T07:07:53;7.10;99.90
32614;DHT22;19031;51.400;6.770;2024-03-02T07:10:18;7.30;99.90
32614;DHT22;19031;51.400;6.770;2024-03-02T07:12:44;7.50;99.90
32614;DHT22;19031;51.400;6.770;2024-03-02T07:15:10;7.60;99.90
32614;DHT22;19031;51.400;6.770;2024-03-02T07:18:08;7.70;99.90
32614;DHT22;19031;51.400;6.770;2024-03-02T07:20:33;7.80;99.90
32614;DHT22;19031;51.400;6.770;2024-03-02T07:22:59;7.90;99.90
32614;DHT22;19031;51.400;6.770;2024-03-02T07:25:24;8.00;99.90
32614;DHT22;19031;51.400;6.770;2024-03-02T07:27:50;8.10;99.90
32614;DHT22;19031;51.400;6.770;2024-03-02T07:30:16;8.20;99.90
32614;DHT22;19031;51.400;6.770;2024-03-02T07:32:42;8.10;99.90
32614;DHT22;19031;51.400;6.770;2024-03-02T07:35:14;8.20;99.90
32614;DHT22;19031;51.400;6.770;2024-03-02T07:37:41;8.50;99.90
32614;DHT22;19031;51.400;6.770;2024-03-02T07:40:07;8.90;99.90
32614;DHT22;19031;51.400;6.770;2024-03-02T07:42:37;9.40;99.90
32614;DHT22;19031;51.400;6.770;2024-03-02T07:45:03;9.90;99.90
32614;DHT22;19031;51.400;6.770;2024-03-02T07:47:29;10.40;99.90
32614;DHT22;19031;51.400;6.770;2024-03-02T07:49:54;10.90;99.90
32614;DHT22;19031;51.400;6.770;2024-03-02T07:52:20;10.90;99.90
32614;DHT22;19031;51.400;6.770;2024-03-02T07:54:46;10.50;99.90
32614;DHT22;19031;51.400;6.770;2024-03-02T07:57:11;10.30;99.90
32614;DHT22;19031;51.400;6.770;2024-03-02T07:59:37;10.20;99.90
32614;DHT22;19031;51.400;6.770;2024-03-02T08:02:03;10.20;99.90
32614;DHT22;19031;51.400;6.770;2024-03-02T08:04:28;10.10;99.90
32614;DHT22;19031;51.400;6.770;2024-03-02T08:06:54;10.00;99.90
32614;DHT22;19031;51.400;6.770;2024-03-02T08:09:20;9.90;99.90
32614;DHT22;19031;51.400;6.770;2024-03-02T08:11:45;9.70;99.90
32614;DHT22;19031;51.400;6.770;2024-03-02T08:14:11;9.70;99.90
32614;DHT22;19031;51.400;6.770;2024-03-02T08:16:36;9.70;99.90
32614;DHT22;19031;51.400;6.770;2024-03-02T08:19:02;9.80;99.90
32614;DHT22;19031;51.400;6.770;2024-03-02T08:21:28;9.80;99.90
32614;DHT22;19031;51.400;6.770;2024-03-02T08:23:57;10.10;99.90
32614;DHT22;19031;51.400;6.770;2024-03-02T08:26:23;10.70;99.90
32614;DHT22;19031;51.400;6.770;2024-03-02T08:28:49;11.10;99.90
32614;DHT22;19031;51.400;6.770;2024-03-02T08:31:15;11.10;99.90
32614;DHT22;19031;51.400;6.770;2024-03-02T08:33:40;11.00;99.90
32614;DHT22;19031;51.400;6.770;2024-03-02T08:36:06;11.10;99.90
32614;DHT22;19031;51.400;6.770;2024-03-02T08:38:32;11.90;99.90
32614;DHT22;19031;51.400;6.770;2024-03-02T08:40:58;12.40;99.90
32614;DHT22;19031;51.400;6.770;2024-03-02T08:43:23;12.90;99.90
32614;DHT22;19031;51.400;6.770;2024-03-02T08:45:50;13.40;99.90
32614;DHT22;19031;51.400;6.770;2024-03-02T08:48:16;13.90;99.90
32614;DHT22;19031;51.400;6.770;2024-03-02T08:50:41;13.90;99.90
32614;DHT22;19031;51.400;6.770;2024-03-02T08:53:07;14.20;99.90
32614;DHT22;19031;51.400;6.770;2024-03-02T08:55:33;14.20;99.90
32614;DHT22;19031;51.400;6.770;2024-03-02T08:57:58;14.50;99.60
32614;DHT22;19031;51.400;6.770;2024-03-02T09:00:24;14.70;99.10
32614;DHT22;19031;51.400;6.770;2024-03-02T09:02:50;15.00;98.20
32614;DHT22;19031;51.400;6.770;2024-03-02T09:05:16;15.40;96.90
32614;DHT22;19031;51.400;6.770;2024-03-02T09:07:41;15.70;95.60
32614;DHT22;19031;51.400;6.770;2024-03-02T09:10:08;16.00;93.40
32614;DHT22;19031;51.400;6.770;2024-03-02T09:12:34;16.40;91.40
32614;DHT22;19031;51.400;6.770;2024-03-02T09:15:03;16.80;89.30
32614;DHT22;19031;51.400;6.770;2024-03-02T09:17:29;16.60;87.50
32614;DHT22;19031;51.400;6.770;2024-03-02T09:19:55;16.70;87.20
32614;DHT22;19031;51.400;6.770;2024-03-02T09:22:20;16.70;85.00
32614;DHT22;19031;51.400;6.770;2024-03-02T09:24:46;16.90;84.50
32614;DHT22;19031;51.400;6.770;2024-03-02T09:27:12;17.00;85.30
32614;DHT22;19031;51.400;6.770;2024-03-02T09:29:38;17.20;81.50
32614;DHT22;19031;51.400;6.770;2024-03-02T09:32:08;17.20;81.30
32614;DHT22;19031;51.400;6.770;2024-03-02T09:34:33;17.10;80.50
32614;DHT22;19031;51.400;6.770;2024-03-02T09:36:59;16.80;81.40
32614;DHT22;19031;51.400;6.770;2024-03-02T09:39:24;16.90;82.80
32614;DHT22;19031;51.400;6.770;2024-03-02T09:41:51;16.50;81.90
32614;DHT22;19031;51.400;6.770;2024-03-02T09:44:17;16.20;87.70
32614;DHT22;19031;51.400;6.770;2024-03-02T09:46:42;15.60;89.00
32614;DHT22;19031;51.400;6.770;2024-03-02T09:49:10;15.50;92.50
32614;DHT22;19031;51.400;6.770;2024-03-02T09:51:37;16.30;91.30
32614;DHT22;19031;51.400;6.770;2024-03-02T09:54:02;16.90;87.00
32614;DHT22;19031;51.400;6.770;2024-03-02T09:56:28;17.20;81.10
32614;DHT22;19031;51.400;6.770;2024-03-02T09:58:54;17.20;81.40
32614;DHT22;19031;51.400;6.770;2024-03-02T10:01:19;17.50;77.90
32614;DHT22;19031;51.400;6.770;2024-03-02T10:03:45;17.60;75.90
32614;DHT22;19031;51.400;6.770;2024-03-02T10:06:22;17.90;72.60
32614;DHT22;19031;51.400;6.770;2024-03-02T10:08:48;18.40;71.90
32614;DHT22;19031;51.400;6.770;2024-03-02T10:13:51;18.70;68.80
32614;DHT22;19031;51.400;6.770;2024-03-02T10:16:17;18.30;68.30
32614;DHT22;19031;51.400;6.770;2024-03-02T10:18:42;18.30;67.10
32614;DHT22;19031;51.400;6.770;2024-03-02T10:21:14;18.80;64.40
32614;DHT22;19031;51.400;6.770;2024-03-02T10:23:40;18.90;65.70
32614;DHT22;19031;51.400;6.770;2024-03-02T10:26:32;19.20;64.40
32614;DHT22;19031;51.400;6.770;2024-03-02T10:28:58;19.90;61.60
32614;DHT22;19031;51.400;6.770;2024-03-02T10:31:25;20.50;59.20
32614;DHT22;19031;51.400;6.770;2024-03-02T10:33:54;20.60;58.20
32614;DHT22;19031;51.400;6.770;2024-03-02T10:36:20;21.00;56.20
32614;DHT22;19031;51.400;6.770;2024-03-02T10:38:46;20.70;56.70
32614;DHT22;19031;51.400;6.770;2024-03-02T10:41:17;20.90;55.60
32614;DHT22;19031;51.400;6.770;2024-03-02T10:43:43;20.90;54.50
32614;DHT22;19031;51.400;6.770;2024-03-02T10:46:11;20.70;52.50
32614;DHT22;19031;51.400;6.770;2024-03-02T10:48:39;20.80;55.90
32614;DHT22;19031;51.400;6.770;2024-03-02T10:51:06;20.40;54.30
32614;DHT22;19031;51.400;6.770;2024-03-02T10:53:32;20.50;53.70
32614;DHT22;19031;51.400;6.770;2024-03-02T10:55:58;20.50;54.60
32614;DHT22;19031;51.400;6.770;2024-03-02T10:58:32;20.30;54.80
32614;DHT22;19031;51.400;6.770;2024-03-02T11:01:04;20.60;53.70
32614;DHT22;19031;51.400;6.770;2024-03-02T11:03:34;20.80;53.70
32614;DHT22;19031;51.400;6.770;2024-03-02T11:06:00;20.90;53.00
32614;DHT22;19031;51.400;6.770;2024-03-02T11:08:29;21.10;53.00
32614;DHT22;19031;51.400;6.770;2024-03-02T11:10:58;20.30;53.10
32614;DHT22;19031;51.400;6.770;2024-03-02T11:13:34;21.10;52.60
32614;DHT22;19031;51.400;6.770;2024-03-02T11:16:05;20.90;52.10
32614;DHT22;19031;51.400;6.770;2024-03-02T11:18:32;21.00;54.10
32614;DHT22;19031;51.400;6.770;2024-03-02T11:20:58;21.00;51.50
32614;DHT22;19031;51.400;6.770;2024-03-02T11:23:34;21.10;51.70
32614;DHT22;19031;51.400;6.770;2024-03-02T11:26:20;21.40;51.50
32614;DHT22;19031;51.400;6.770;2024-03-02T11:28:45;21.00;51.10
32614;DHT22;19031;51.400;6.770;2024-03-02T11:31:11;21.00;51.70
32614;DHT22;19031;51.400;6.770;2024-03-02T11:33:37;20.70;53.30
32614;DHT22;19031;51.400;6.770;2024-03-02T11:36:02;20.20;52.50
32614;DHT22;19031;51.400;6.770;2024-03-02T11:38:30;19.40;53.40
32614;DHT22;19031;51.400;6.770;2024-03-02T11:40:58;19.60;56.10
32614;DHT22;19031;51.400;6.770;2024-03-02T11:43:26;19.80;54.50
32614;DHT22;19031;51.400;6.770;2024-03-02T11:46:00;19.70;55.20
32614;DHT22;19031;51.400;6.770;2024-03-02T11:48:26;19.90;55.00
32614;DHT22;19031;51.400;6.770;2024-03-02T11:50:52;19.70;54.30
32614;DHT22;19031;51.400;6.770;2024-03-02T11:53:19;19.70;54.70
32614;DHT22;19031;51.400;6.770;2024-03-02T11:55:45;19.90;57.40
32614;DHT22;19031;51.400;6.770;2024-03-02T11:58:15;20.40;53.00
32614;DHT22;19031;51.400;6.770;2024-03-02T12:00:46;20.70;53.70
32614;DHT22;19031;51.400;6.770;2024-03-02T12:03:13;20.80;54.30
32614;DHT22;19031;51.400;6.770;2024-03-02T12:05:41;21.10;51.40
32614;DHT22;19031;51.400;6.770;2024-03-02T12:08:07;21.10;50.30
32614;DHT22;19031;51.400;6.770;2024-03-02T12:10:34;21.10;50.40
32614;DHT22;19031;51.400;6.770;2024-03-02T12:13:05;20.70;51.80
32614;DHT22;19031;51.400;6.770;2024-03-02T12:15:38;20.30;52.80
32614;DHT22;19031;51.400;6.770;2024-03-02T12:18:05;19.60;51.90
32614;DHT22;19031;51.400;6.770;2024-03-02T12:20:33;19.40;53.70
32614;DHT22;19031;51.400;6.770;2024-03-02T12:23:00;19.10;54.40
32614;DHT22;19031;51.400;6.770;2024-03-02T12:25:26;18.30;55.40
32614;DHT22;19031;51.400;6.770;2024-03-02T12:27:56;17.70;58.20
32614;DHT22;19031;51.400;6.770;2024-03-02T12:30:23;17.30;60.40
32614;DHT22;19031;51.400;6.770;2024-03-02T12:32:49;17.00;62.30
32614;DHT22;19031;51.400;6.770;2024-03-02T12:35:15;16.80;64.70
32614;DHT22;19031;51.400;6.770;2024-03-02T12:37:48;16.60;67.20
32614;DHT22;19031;51.400;6.770;2024-03-02T12:40:15;16.20;68.00
32614;DHT22;19031;51.400;6.770;2024-03-02T12:42:43;16.10;67.00
32614;DHT22;19031;51.400;6.770;2024-03-02T12:45:09;16.10;71.30
32614;DHT22;19031;51.400;6.770;2024-03-02T12:47:35;16.10;68.50
32614;DHT22;19031;51.400;6.770;2024-03-02T12:50:03;16.10;69.20
32614;DHT22;19031;51.400;6.770;2024-03-02T12:52:29;16.10;69.90
32614;DHT22;19031;51.400;6.770;2024-03-02T12:54:55;16.00;71.10
32614;DHT22;19031;51.400;6.770;2024-03-02T12:57:28;15.90;70.70
32614;DHT22;19031;51.400;6.770;2024-03-02T13:00:02;15.60;73.50
32614;DHT22;19031;51.400;6.770;2024-03-02T13:02:34;15.50;78.90
32614;DHT22;19031;51.400;6.770;2024-03-02T13:05:00;15.60;80.60
32614;DHT22;19031;51.400;6.770;2024-03-02T13:07:26;15.60;79.30
32614;DHT22;19031;51.400;6.770;2024-03-02T13:09:53;15.50;82.50
32614;DHT22;19031;51.400;6.770;2024-03-02T13:12:21;15.60;86.20
32614;DHT22;19031;51.400;6.770;2024-03-02T13:14:53;15.60;85.40
32614;DHT22;19031;51.400;6.770;2024-03-02T13:17:19;15.60;86.80
32614;DHT22;19031;51.400;6.770;2024-03-02T13:19:58;15.30;84.90
32614;DHT22;19031;51.400;6.770;2024-03-02T13:22:25;15.20;86.30
32614;DHT22;19031;51.400;6.770;2024-03-02T13:24:51;15.30;87.00
32614;DHT22;19031;51.400;6.770;2024-03-02T13:27:18;15.00;87.10
32614;DHT22;19031;51.400;6.770;2024-03-02T13:29:47;15.00;90.00
32614;DHT22;19031;51.400;6.770;2024-03-02T13:32:13;15.10;90.50
32614;DHT22;19031;51.400;6.770;2024-03-02T13:34:39;15.20;88.60
32614;DHT22;19031;51.400;6.770;2024-03-02T13:37:05;15.20;90.40
32614;DHT22;19031;51.400;6.770;2024-03-02T13:39:31;15.30;91.00
32614;DHT22;19031;51.400;6.770;2024-03-02T13:41:58;15.30;90.20
32614;DHT22;19031;51.400;6.770;2024-03-02T13:44:30;15.30;92.20
32614;DHT22;19031;51.400;6.770;2024-03-02T13:46:56;15.20;90.40
32614;DHT22;19031;51.400;6.770;2024-03-02T13:49:23;15.20;90.70
32614;DHT22;19031;51.400;6.770;2024-03-02T13:51:49;15.10;90.80
32614;DHT22;19031;51.400;6.770;2024-03-02T13:54:15;15.10;91.30
32614;DHT22;19031;51.400;6.770;2024-03-02T13:56:40;15.20;92.10
32614;DHT22;19031;51.400;6.770;2024-03-02T13:59:07;15.30;92.70
32614;DHT22;19031;51.400;6.770;2024-03-02T14:01:33;15.30;89.60
32614;DHT22;19031;51.400;6.770;2024-03-02T14:03:58;15.30;91.50
32614;DHT22;19031;51.400;6.770;2024-03-02T14:06:24;15.40;91.80
32614;DHT22;19031;51.400;6.770;2024-03-02T14:08:52;15.40;90.80
32614;DHT22;19031;51.400;6.770;2024-03-02T14:11:18;15.50;90.90
32614;DHT22;19031;51.400;6.770;2024-03-02T14:13:43;15.50;90.90
32614;DHT22;19031;51.400;6.770;2024-03-02T14:16:13;15.40;91.40
32614;DHT22;19031;51.400;6.770;2024-03-02T14:18:39;15.40;92.50
32614;DHT22;19031;51.400;6.770;2024-03-02T14:21:04;15.30;91.90
32614;DHT22;19031;51.400;6.770;2024-03-02T14:23:30;15.30;92.10
32614;DHT22;19031;51.400;6.770;2024-03-02T14:25:56;15.10;92.00
32614;DHT22;19031;51.400;6.770;2024-03-02T14:28:22;15.30;93.70
32614;DHT22;19031;51.400;6.770;2024-03-02T14:30:48;15.20;92.10
32614;DHT22;19031;51.400;6.770;2024-03-02T14:33:13;15.30;93.40
32614;DHT22;19031;51.400;6.770;2024-03-02T14:35:39;15.20;91.60
32614;DHT22;19031;51.400;6.770;2024-03-02T14:38:04;15.30;92.20
32614;DHT22;19031;51.400;6.770;2024-03-02T14:40:30;15.40;92.50
32614;DHT22;19031;51.400;6.770;2024-03-02T14:42:56;15.50;92.60
32614;DHT22;19031;51.400;6.770;2024-03-02T14:45:21;15.50;92.00
32614;DHT22;19031;51.400;6.770;2024-03-02T14:47:47;15.60;92.60
32614;DHT22;19031;51.400;6.770;2024-03-02T14:50:13;15.50;91.10
32614;DHT22;19031;51.400;6.770;2024-03-02T14:52:40;15.30;91.30
32614;DHT22;19031;51.400;6.770;2024-03-02T14:55:06;15.10;91.40
32614;DHT22;19031;51.400;6.770;2024-03-02T14:57:33;15.10;92.50
32614;DHT22;19031;51.400;6.770;2024-03-02T14:59:58;15.10;92.90
32614;DHT22;19031;51.400;6.770;2024-03-02T15:02:24;15.00;93.10
32614;DHT22;19031;51.400;6.770;2024-03-02T15:04:50;15.00;93.60
32614;DHT22;19031;51.400;6.770;2024-03-02T15:07:16;15.00;92.80
32614;DHT22;19031;51.400;6.770;2024-03-02T15:09:41;15.00;94.40
32614;DHT22;19031;51.400;6.770;2024-03-02T15:12:07;15.10;93.00
32614;DHT22;19031;51.400;6.770;2024-03-02T15:14:37;15.10;92.70
32614;DHT22;19031;51.400;6.770;2024-03-02T15:17:04;15.10;92.80
32614;DHT22;19031;51.400;6.770;2024-03-02T15:19:29;15.10;93.70
32614;DHT22;19031;51.400;6.770;2024-03-02T15:21:55;15.20;93.80
32614;DHT22;19031;51.400;6.770;2024-03-02T15:24:20;15.20;93.10
32614;DHT22;19031;51.400;6.770;2024-03-02T15:26:46;15.30;93.40
32614;DHT22;19031;51.400;6.770;2024-03-02T15:29:12;15.20;91.70
32614;DHT22;19031;51.400;6.770;2024-03-02T15:31:37;15.10;93.20
32614;DHT22;19031;51.400;6.770;2024-03-02T15:34:03;15.10;93.50
32614;DHT22;19031;51.400;6.770;2024-03-02T15:36:28;15.10;93.30
32614;DHT22;19031;51.400;6.770;2024-03-02T15:38:54;15.10;93.60
32614;DHT22;19031;51.400;6.770;2024-03-02T15:41:20;15.00;92.00